Flight Track Log - Related Links

Times and Time Zones

All times are in EDT time to prevent confusion due to time zone crossing. See the DAL110 flight status page for this flight to view local times or setup timezone preferences in your user account.

Time Position Orientation Groundspeed Altitude Reporting Facility
EDT Latitude Longitude Course Direction KTS MPH feet Rate Location/Type
Tue 08:53:26 AM 33.6500 -84.4667 270° West 196 226 2,700  Level Atlanta TRACON
Tue 08:54:14 AM 33.6667 -84.5333 287° West 264 304 4,100 2,444 Climbing Atlanta TRACON
Tue 08:55:00 AM 33.8001 -84.4021 270° West  Level FlightAware Approximate
Tue 08:55:14 AM 33.6833 -84.6333 281° West 294 338 7,100  Level Atlanta TRACON
Tue 08:56:00 AM 33.8000 -84.5525 270° West  Level FlightAware Approximate
Tue 08:57:00 AM 33.8001 -84.7030 270° West  Level FlightAware Approximate
Tue 08:57:31 AM 33.7164 -84.8706 280° West 329 379 12,000  Level Atlanta Center
Tue 08:58:00 AM 33.8000 -84.8534 270° West  Level FlightAware Approximate
Tue 08:58:31 AM 33.7322 -84.9981 279° West 375 432 13,900  Level Atlanta Center
Tue 08:59:31 AM 33.7539 -85.1306 281° West 405 466 16,100 2,100 Climbing Atlanta Center
Tue 09:00:31 AM 33.7756 -85.2708 281° West 426 490 18,100 1,750 Climbing Atlanta Center
Tue 09:01:31 AM 33.8011 -85.4286 281° West 431 496 19,600 1,650 Climbing Atlanta Center
Tue 09:02:31 AM 33.8264 -85.5717 282° West 436 502 21,400 1,700 Climbing Atlanta Center
Tue 09:03:31 AM 33.8619 -85.7225 286° West 447 514 23,000 1,500 Climbing Atlanta Center
Tue 09:04:31 AM 33.9019 -85.8458 291° West 457 526 24,400 1,400 Climbing Atlanta Center
Tue 09:05:31 AM 33.9519 -86.0022 291° West 466 536 25,800 1,350 Climbing Atlanta Center
Tue 09:06:31 AM 33.9994 -86.1536 291° West 480 552 27,100 1,300 Climbing Atlanta Center
Tue 09:07:31 AM 34.0425 -86.3150 288° West 495 570 28,400 1,450 Climbing Atlanta Center
Tue 09:08:31 AM 34.0875 -86.4717 289° West 507 583 30,000 1,600 Climbing Atlanta Center
Tue 09:09:31 AM 34.1322 -86.6311 289° West 507 583 31,600 1,650 Climbing Atlanta Center
Tue 09:10:31 AM 34.1747 -86.7856 288° West 502 578 33,300 1,582 Climbing Atlanta Center
Tue 09:11:02 AM 34.2014 -86.8839 288° West 500 575 34,000 593 Climbing Memphis Center
Tue 09:12:02 AM 34.2433 -87.0506 287° West 516 594 34,200 800 Climbing Memphis Center
Tue 09:13:02 AM 34.2847 -87.1997 289° West 495 570 35,600 900 Climbing Memphis Center
Tue 09:14:02 AM 34.3281 -87.3392 291° West 469 540 36,000 200 Climbing Memphis Center
Tue 09:15:02 AM 34.3692 -87.4936 288° West 475 547 36,000  Level Memphis Center
Tue 09:16:02 AM 34.4122 -87.6483 289° West 480 552 36,000  Level Memphis Center
Tue 09:17:02 AM 34.4511 -87.8006 287° West 480 552 36,000  Level Memphis Center
Tue 09:18:02 AM 34.4936 -87.9506 289° West 480 552 36,000  Level Memphis Center
Tue 09:19:02 AM 34.5342 -88.1083 287° West 480 552 36,000  Level Memphis Center
Tue 09:20:02 AM 34.5700 -88.2486 287° West 485 558 36,000  Level Memphis Center
Tue 09:21:02 AM 34.6100 -88.4014 288° West 485 558 36,000  Level Memphis Center
Tue 09:22:02 AM 34.6542 -88.5619 289° West 467 537 36,000  Level Memphis Center
Tue 09:23:02 AM 34.6894 -88.6978 288° West 462 532 36,000  Level Memphis Center
Tue 09:24:02 AM 34.7289 -88.8511 287° West 462 532 36,000  Level Memphis Center
Tue 09:25:02 AM 34.7683 -89.0019 288° West 462 532 36,000  Level Memphis Center
Tue 09:26:02 AM 34.8075 -89.1531 288° West 467 537 36,000  Level Memphis Center
Tue 09:27:02 AM 34.8464 -89.3019 288° West 472 543 36,000  Level Memphis Center
Tue 09:28:02 AM 34.8850 -89.4533 287° West 472 543 36,000  Level Memphis Center
Tue 09:29:02 AM 34.9278 -89.5997 290° West 466 536 36,000  Level Memphis Center
Tue 09:30:02 AM 34.9600 -89.7717 283° West 466 536 36,000  Level Memphis Center
Tue 09:31:02 AM 35.0044 -89.9158 291° West 482 555 36,000  Level Memphis Center
Tue 09:32:02 AM 35.0278 -90.0681 281° West 469 540 36,000  Level Memphis Center
Tue 09:33:02 AM 35.0428 -90.2175 277° West 462 532 36,000  Level Memphis Center
Tue 09:34:02 AM 35.0575 -90.3697 277° West 462 532 36,000  Level Memphis Center
Tue 09:35:02 AM 35.0719 -90.5244 277° West 457 526 36,000  Level Memphis Center
Tue 09:36:02 AM 35.0883 -90.6744 278° West 457 526 36,000  Level Memphis Center
Tue 09:37:02 AM 35.1044 -90.8419 277° West 462 532 36,000  Level Memphis Center
Tue 09:38:02 AM 35.1183 -90.9969 276° West 462 532 36,000  Level Memphis Center
Tue 09:39:02 AM 35.1342 -91.1467 277° West 462 532 36,000  Level Memphis Center
Tue 09:40:02 AM 35.1478 -91.2992 276° West 462 532 36,000  Level Memphis Center
Tue 09:41:02 AM 35.1592 -91.4492 275° West 462 532 36,000  Level Memphis Center
Tue 09:42:02 AM 35.1744 -91.6017 277° West 462 532 36,000  Level Memphis Center
Tue 09:43:02 AM 35.1894 -91.7569 277° West 462 532 36,000  Level Memphis Center
Tue 09:44:02 AM 35.1772 -91.9092 264° West 456 525 36,000  Level Memphis Center
Tue 09:45:02 AM 35.1606 -92.0689 263° West 461 531 36,000 400 Level Memphis Center
Tue 09:46:02 AM 35.1625 -92.2239 271° West 461 531 36,800 800 Climbing Memphis Center
Tue 09:47:02 AM 35.1661 -92.3814 272° West 461 531 37,600 600 Climbing Memphis Center
Tue 09:48:02 AM 35.1761 -92.5392 274° West 461 531 38,000 200 Climbing Memphis Center
Tue 09:49:02 AM 35.1858 -92.6994 274° West 466 536 38,000  Level Memphis Center
Tue 09:50:02 AM 35.1972 -92.8600 275° West 471 542 38,000  Level Memphis Center
Tue 09:51:02 AM 35.2064 -93.0228 274° West 482 555 38,000  Level Memphis Center
Tue 09:52:02 AM 35.2133 -93.1781 273° West 477 549 38,000  Level Memphis Center
Tue 09:53:02 AM 35.2200 -93.3383 273° West 477 549 38,000  Level Memphis Center
Tue 09:54:02 AM 35.2267 -93.4964 273° West 477 549 38,000  Level Memphis Center
Tue 09:55:02 AM 35.2339 -93.6236 274° West 477 549 38,000  Level Memphis Center
Tue 09:56:02 AM 35.2397 -93.7942 272° West 477 549 38,000  Level Memphis Center
Tue 09:57:02 AM 35.2478 -93.9497 274° West 472 543 38,000  Level Memphis Center
Tue 09:58:02 AM 35.2536 -94.1075 273° West 472 543 38,000  Level Memphis Center
Tue 09:59:02 AM 35.2614 -94.2631 274° West 467 537 38,000  Level Memphis Center
Tue 10:00:02 AM 35.2667 -94.4183 272° West 462 532 38,000  Level Memphis Center
Tue 10:02:26 AM 35.2833 -94.8042 273° West 456 525 38,000  Level Fort Worth Center
Tue 10:03:26 AM 35.2883 -94.9542 272° West 456 525 38,000  Level Fort Worth Center
Tue 10:04:26 AM 35.2953 -95.1067 273° West 456 525 38,000  Level Fort Worth Center
Tue 10:05:26 AM 35.3003 -95.2617 272° West 456 525 38,000  Level Fort Worth Center
Tue 10:06:27 AM 35.3050 -95.4192 272° West 461 531 38,000  Level Fort Worth Center
Tue 10:07:26 AM 35.3114 -95.5742 273° West 461 531 38,000  Level Fort Worth Center
Tue 10:08:26 AM 35.3133 -95.7117 271° West 461 531 38,000  Level Fort Worth Center
Tue 10:09:27 AM 35.3217 -95.8717 274° West 461 531 38,000  Level Fort Worth Center
Tue 10:10:26 AM 35.3258 -96.0394 272° West 461 531 38,000  Level Fort Worth Center
Tue 10:11:26 AM 35.3294 -96.1972 272° West 461 531 38,000  Level Fort Worth Center
Tue 10:12:26 AM 35.3331 -96.3500 272° West 461 531 38,000  Level Fort Worth Center
Tue 10:13:26 AM 35.3383 -96.5075 272° West 461 531 38,000  Level Fort Worth Center
Tue 10:14:26 AM 35.3414 -96.6628 271° West 461 531 38,000  Level Fort Worth Center
Tue 10:15:26 AM 35.3444 -96.8181 271° West 461 531 38,000  Level Fort Worth Center
Tue 10:16:26 AM 35.3492 -96.9708 272° West 461 531 38,000  Level Fort Worth Center
Tue 10:17:26 AM 35.3517 -97.1258 271° West 461 531 38,000  Level Fort Worth Center
Tue 10:18:26 AM 35.3581 -97.2683 273° West 463 533 38,000  Level Fort Worth Center
Tue 10:19:26 AM 35.3667 -97.4186 274° West 463 533 38,000  Level Fort Worth Center
Tue 10:20:26 AM 35.3603 -97.5842 267° West 462 532 38,000  Level Fort Worth Center
Tue 10:21:26 AM 35.3642 -97.7317 272° West 462 532 38,000  Level Fort Worth Center
Tue 10:22:26 AM 35.3678 -97.8844 272° West 456 525 38,000  Level Fort Worth Center
Tue 10:23:26 AM 35.3714 -98.0372 272° West 456 525 38,000  Level Fort Worth Center
Tue 10:24:26 AM 35.3725 -98.1875 271° West 456 525 38,000  Level Fort Worth Center
Tue 10:25:26 AM 35.3756 -98.3403 271° West 456 525 38,000  Level Fort Worth Center
Tue 10:26:26 AM 35.3767 -98.4881 271° West 456 525 38,000  Level Fort Worth Center
Tue 10:27:26 AM 35.3769 -98.6561 270° West 451 519 38,000  Level Fort Worth Center
Tue 10:28:26 AM 35.3775 -98.8114 270° West 451 519 38,000  Level Fort Worth Center
Tue 10:29:26 AM 35.3797 -98.9667 271° West 456 525 38,000  Level Fort Worth Center
Tue 10:30:26 AM 35.3800 -99.1219 270° West 456 525 38,000  Level Fort Worth Center
Tue 10:31:26 AM 35.3797 -99.2797 270° West 456 525 38,000  Level Fort Worth Center
Tue 10:33:01 AM 35.3811 -99.5303 270° West 466 536 38,000  Level Albuquerque Center
Tue 10:34:03 AM 35.3828 -99.6925 271° West 470 541 38,000  Level Albuquerque Center
Tue 10:35:05 AM 35.3822 -99.8558 270° West 475 547 38,000  Level Albuquerque Center
Tue 10:36:07 AM 35.3822 -100.0203 270° West 478 550 38,000  Level Albuquerque Center
Tue 10:37:09 AM 35.3825 -100.1842 270° West 479 551 38,000  Level Albuquerque Center
Tue 10:38:11 AM 35.3817 -100.3497 270° West 484 557 38,000  Level Albuquerque Center
Tue 10:39:12 AM 35.3806 -100.5167 270° West 487 560 38,000  Level Albuquerque Center
Tue 10:40:14 AM 35.3783 -100.7011 269° West 489 563 38,000  Level Albuquerque Center
Tue 10:41:16 AM 35.3769 -100.8664 269° West 488 562 38,000  Level Albuquerque Center
Tue 10:42:18 AM 35.3750 -101.0322 269° West 489 563 38,000  Level Albuquerque Center
Tue 10:43:20 AM 35.3736 -101.1961 269° West 485 558 38,000  Level Albuquerque Center
Tue 10:44:22 AM 35.3711 -101.3828 269° West 488 562 38,000  Level Albuquerque Center
Tue 10:45:24 AM 35.3722 -101.5497 271° West 489 563 38,000  Level Albuquerque Center
Tue 10:46:26 AM 35.3700 -101.7347 269° West 485 558 38,000  Level Albuquerque Center
Tue 10:47:28 AM 35.3653 -101.8986 268° West 481 554 38,000  Level Albuquerque Center
Tue 10:48:30 AM 35.3586 -102.0717 267° West 482 555 38,000  Level Albuquerque Center
Tue 10:49:32 AM 35.3550 -102.2328 268° West 478 550 38,000  Level Albuquerque Center
Tue 10:50:34 AM 35.3519 -102.3939 269° West 476 548 38,000  Level Albuquerque Center
Tue 10:51:35 AM 35.3481 -102.5558 268° West 477 549 38,000  Level Albuquerque Center
Tue 10:52:37 AM 35.3447 -102.7172 269° West 476 548 38,000  Level Albuquerque Center
Tue 10:53:39 AM 35.3403 -102.9075 268° West 475 547 38,000  Level Albuquerque Center
Tue 10:54:41 AM 35.3358 -103.0692 268° West 473 544 38,000  Level Albuquerque Center
Tue 10:55:43 AM 35.3308 -103.2317 268° West 474 545 38,000  Level Albuquerque Center
Tue 10:56:45 AM 35.3258 -103.3936 268° West 474 545 38,000  Level Albuquerque Center
Tue 10:57:47 AM 35.3211 -103.5547 268° West 471 542 38,000  Level Albuquerque Center
Tue 10:58:49 AM 35.3167 -103.7139 268° West 466 536 38,000  Level Albuquerque Center
Tue 10:59:51 AM 35.3106 -103.8714 267° West 462 532 38,000  Level Albuquerque Center
Tue 11:00:53 AM 35.3047 -104.0533 268° West 461 531 38,000  Level Albuquerque Center
Tue 11:01:55 AM 35.2986 -104.2075 267° West 457 526 38,000  Level Albuquerque Center
Tue 11:02:57 AM 35.2931 -104.3600 267° West 451 519 38,000  Level Albuquerque Center
Tue 11:03:59 AM 35.2864 -104.5125 267° West 451 519 38,000  Level Albuquerque Center
Tue 11:05:01 AM 35.2786 -104.6625 266° West 451 519 38,000  Level Albuquerque Center
Tue 11:06:03 AM 35.2722 -104.8397 268° West 447 514 38,000  Level Albuquerque Center
Tue 11:07:04 AM 35.2656 -104.9936 267° West 448 516 38,000  Level Albuquerque Center
Tue 11:08:06 AM 35.2583 -105.1472 267° West 450 518 38,000  Level Albuquerque Center
Tue 11:09:08 AM 35.2500 -105.3000 266° West 448 516 38,000  Level Albuquerque Center
Tue 11:10:10 AM 35.2444 -105.4525 267° West 447 514 38,000  Level Albuquerque Center
Tue 11:11:12 AM 35.2367 -105.6053 266° West 446 513 38,000  Level Albuquerque Center
Tue 11:12:14 AM 35.2294 -105.7581 267° West 447 514 38,000  Level Albuquerque Center
Tue 11:13:16 AM 35.2186 -105.9364 266° West 448 516 38,000  Level Albuquerque Center
Tue 11:14:18 AM 35.2114 -106.0892 267° West 447 514 38,000  Level Albuquerque Center
Tue 11:15:20 AM 35.2053 -106.2325 267° West 451 519 38,000  Level Albuquerque Center
Tue 11:16:22 AM 35.1967 -106.3839 266° West 448 516 38,000  Level Albuquerque Center
Tue 11:17:24 AM 35.1875 -106.5503 266° West 450 518 38,000  Level Albuquerque Center
Tue 11:18:26 AM 35.1797 -106.7200 267° West 448 516 38,000  Level Albuquerque Center
Tue 11:19:28 AM 35.1703 -106.8653 265° West 447 514 38,000  Level Albuquerque Center
Tue 11:20:30 AM 35.1603 -107.0128 265° West 452 520 38,000  Level Albuquerque Center
Tue 11:21:32 AM 35.1503 -107.1825 266° West 449 517 38,000  Level Albuquerque Center
Tue 11:22:34 AM 35.1408 -107.3189 265° West 458 527 38,000  Level Albuquerque Center
Tue 11:23:36 AM 35.1286 -107.5008 265° West 452 520 38,000  Level Albuquerque Center
Tue 11:24:38 AM 35.1192 -107.6475 266° West 449 517 38,000  Level Albuquerque Center
Tue 11:25:40 AM 35.1086 -107.8194 266° West 450 518 38,000  Level Albuquerque Center
Tue 11:26:42 AM 35.0978 -107.9667 265° West 452 520 38,000  Level Albuquerque Center
Tue 11:27:44 AM 35.0872 -108.1347 266° West 447 514 38,000  Level Albuquerque Center
Tue 11:28:45 AM 35.0764 -108.2822 265° West 450 518 38,000  Level Albuquerque Center
Tue 11:29:47 AM 35.0656 -108.4289 265° West 451 519 38,000  Level Albuquerque Center
Tue 11:30:49 AM 35.0536 -108.5994 265° West 450 518 38,000  Level Albuquerque Center
Tue 11:31:51 AM 35.0431 -108.7453 265° West 450 518 38,000  Level Albuquerque Center
Tue 11:32:53 AM 35.0300 -108.9161 265° West 450 518 38,000  Level Albuquerque Center
Tue 11:33:55 AM 35.0189 -109.0636 265° West 453 521 38,000  Level Albuquerque Center
Tue 11:34:57 AM 35.0061 -109.2342 265° West 453 521 38,000  Level Albuquerque Center
Tue 11:35:59 AM 34.9942 -109.3800 264° West 450 518 38,000  Level Albuquerque Center
Tue 11:37:01 AM 34.9825 -109.5261 264° West 450 518 38,000  Level Albuquerque Center
Tue 11:38:03 AM 34.9689 -109.6956 264° West 449 517 38,000  Level Albuquerque Center
Tue 11:39:05 AM 34.9561 -109.8417 264° West 451 519 38,000  Level Albuquerque Center
Tue 11:40:07 AM 34.9431 -110.0117 265° West 450 518 38,000  Level Albuquerque Center
Tue 11:41:41 AM 34.9200 -110.2319 263° West 448 516 38,000  Level Los Angeles Center
Tue 11:42:43 AM 34.9075 -110.3833 264° West 450 518 38,000  Level Los Angeles Center
Tue 11:43:45 AM 34.8903 -110.5628 263° West 446 513 38,000  Level Los Angeles Center
Tue 11:44:48 AM 34.8767 -110.7139 264° West 448 516 38,000  Level Los Angeles Center
Tue 11:45:50 AM 34.8633 -110.8633 264° West 447 514 38,000  Level Los Angeles Center
Tue 11:46:52 AM 34.8492 -111.0136 263° West 449 517 38,000  Level Los Angeles Center
Tue 11:47:54 AM 34.8350 -111.1625 263° West 446 513 38,000  Level Los Angeles Center
Tue 11:48:56 AM 34.8208 -111.3119 263° West 448 516 38,000  Level Los Angeles Center
Tue 11:49:58 AM 34.8036 -111.4919 263° West 448 516 38,000  Level Los Angeles Center
Tue 11:51:00 AM 34.7892 -111.6408 263° West 447 514 38,000  Level Los Angeles Center
Tue 11:52:02 AM 34.7744 -111.7792 263° West 448 516 38,000  Level Los Angeles Center
Tue 11:53:04 AM 34.7564 -111.9569 263° West 446 513 38,000  Level Los Angeles Center
Tue 11:54:06 AM 34.7411 -112.1078 263° West 448 516 38,000  Level Los Angeles Center
Tue 11:55:09 AM 34.7256 -112.2556 263° West 445 512 38,000  Level Los Angeles Center
Tue 11:56:11 AM 34.7106 -112.4042 263° West 443 510 38,000  Level Los Angeles Center
Tue 11:57:13 AM 34.6944 -112.5522 263° West 444 511 38,000  Level Los Angeles Center
Tue 11:58:15 AM 34.6756 -112.6994 261° West 442 509 38,000  Level Los Angeles Center
Tue 11:59:17 AM 34.6556 -112.8769 262° West 443 510 38,000  Level Los Angeles Center
Tue 12:00:19 PM 34.6375 -113.0256 262° West 443 510 38,000  Level Los Angeles Center
Tue 12:01:21 PM 34.6192 -113.1736 261° West 444 511 38,000  Level Los Angeles Center
Tue 12:02:23 PM 34.6014 -113.3242 262° West 448 516 38,000  Level Los Angeles Center
Tue 12:03:25 PM 34.5831 -113.4722 261° West 448 516 38,000 -145 Level Los Angeles Center
Tue 12:04:27 PM 34.5597 -113.6500 261° West 448 516 37,700 -1,016 Descending Los Angeles Center
Tue 12:05:29 PM 34.5297 -113.7969 256° West 453 521 35,900 -1,488 Descending Los Angeles Center
Tue 12:06:32 PM 34.4986 -113.9558 257° West 459 528 34,600 -960 Descending Los Angeles Center
Tue 12:07:34 PM 34.4675 -114.1058 256° West 459 528 33,900 -290 Descending Los Angeles Center
Tue 12:08:36 PM 34.4367 -114.2594 256° West 469 540 34,000 48 Climbing Los Angeles Center
Tue 12:09:38 PM 34.4144 -114.4161 260° West 474 545 34,000  Level Los Angeles Center
Tue 12:10:40 PM 34.3892 -114.5731 259° West 476 548 34,000  Level Los Angeles Center
Tue 12:11:42 PM 34.3583 -114.7619 259° West 478 550 34,000  Level Los Angeles Center
Tue 12:12:44 PM 34.3325 -114.9183 259° West 477 549 34,000  Level Los Angeles Center
Tue 12:13:46 PM 34.3058 -115.0756 258° West 476 548 34,000  Level Los Angeles Center
Tue 12:14:48 PM 34.2808 -115.2322 259° West 477 549 34,000  Level Los Angeles Center
Tue 12:15:51 PM 34.2547 -115.3875 259° West 475 547 34,000 -48 Level Los Angeles Center
Tue 12:16:53 PM 34.2244 -115.5767 259° West 479 551 33,900 -629 Descending Los Angeles Center
Tue 12:17:55 PM 34.1981 -115.7297 258° West 472 543 32,700 -1,113 Descending Los Angeles Center
Tue 12:18:57 PM 34.1708 -115.8850 258° West 474 545 31,600 -1,161 Descending Los Angeles Center
Tue 12:19:59 PM 34.1472 -116.0250 259° West 479 551 30,300 -968 Descending Los Angeles Center
Tue 12:21:01 PM 34.1164 -116.2008 258° West 485 558 29,600 -1,645 Descending Los Angeles Center
Tue 12:22:03 PM 34.0892 -116.3594 258° West 485 558 26,900 -2,661 Descending Los Angeles Center
Tue 12:23:05 PM 34.0564 -116.5425 258° West 468 539 24,100 -2,419 Descending Los Angeles Center
Tue 12:24:07 PM 34.0311 -116.6869 258° West 448 516 21,900 -2,177 Descending Los Angeles Center
Tue 12:25:09 PM 34.0039 -116.8361 258° West 455 524 19,600 -2,112 Descending Los Angeles Center
Tue 12:26:12 PM 33.9781 -116.9775 258° West 437 503 17,500 -1,248 Descending Los Angeles Center
Tue 12:27:14 PM 33.9550 -117.1031 258° West 391 450 17,000 -919 Descending Los Angeles Center
Tue 12:28:16 PM 33.9431 -117.2331 264° West 358 412 15,600 -1,452 Descending Los Angeles Center
Tue 12:29:18 PM 33.9333 -117.3478 264° West 348 400 14,000 -1,728 Descending Los Angeles Center
Tue 12:30:21 PM 33.9667 -117.4833 287° West 344 396 12,000 -1,415 Descending Southern California TRACON
Tue 12:31:21 PM 34.0000 -117.5667 296° West 315 362 11,100 -1,000 Descending Southern California TRACON
Tue 12:32:21 PM 34.0167 -117.6667 281° West 295 339 10,000 -992 Descending Southern California TRACON
Tue 12:33:22 PM 34.0000 -117.7667 259° West 277 319 9,100 -1,100 Descending Southern California TRACON
Tue 12:34:21 PM 33.9833 -117.8667 259° West 279 321 7,800 -1,600 Descending Southern California TRACON
Tue 12:35:22 PM 33.9833 -117.9500 270° West 272 313 5,900 -1,388 Descending Southern California TRACON
Tue 12:36:22 PM 33.9667 -118.0500 259° West 271 312 5,000 -600 Descending Southern California TRACON
Tue 12:37:22 PM 33.9667 -118.1333 270° West 245 282 4,700 -789 Descending Southern California TRACON
Tue 12:38:16 PM 33.9500 -118.2000 253° West 224 258 3,500 -1,333 Descending Southern California TRACON

Login

Don't have an account? Register now (free) for customized features, flight alerts, and more!